Brevoort Island, Canada
Current Conditions -  °F | °C
As of 1:00 AM on Thursday 27 Nov 2014 (Local Time) from CYFB Reporting Station
Broken Clouds Broken Clouds  
Wind Chill: -28°   Ceiling: 11000
Heat Index: -4°   Visibility: 10mi
Dew Point: -11°   Wind: 22mph
Humidity: 71%   Direction: 340°NNW
Pressure: 29.66"   Gusts: NA
Location:  63.5°N, 64.33°W
Report Text: CYFB 270500Z 34019KT 10SM SCT040 BKN110 M20/M24 A2966 RMK SC3AC3 SLP048
Loading
Personal Weather Stations






























Interactive Weather Map New forecast layout! Learn more

10-Day Weather Forecast

Advertisements
Track Severe Weather on mobile